Terminal Aerodrome Forecast
Issued by NWS

Home | Current Version | Previous Version | Text Only | Print | Product List | Glossary On
Versions: 1 2 3 4 5 6 7 8 9 10 11 12 13 14 15 16
000
FTUS45 KPSR 260739 AAA
TAFIPL
TAF AMD
KIPL 260739Z 2608/2706 27016KT P6SM FEW070 SCT120
     FM261500 30012KT P6SM FEW070 SCT200
     FM261900 32016G22KT P6SM FEW080
     FM270200 26011KT P6SM FEW200=

USA.gov is the U.S. government's official web portal to all federal, state and local government web resources and services.